Time,TemperatureF,DewpointF,PressureIn,WindDirection,WindDirectionDegrees,WindSpeedMPH,WindSpeedGustMPH,Humidity,HourlyPrecipIn,Conditions,Clouds,dailyrainin,SoftwareType,DateUTC
2013-02-27 00:03:00,52.0,27.8,29.87,SSW,192,4.0,5.0,39,0.00,,,0.00,LWC V2.11 B50,2013-02-27 06:03:00,
2013-02-27 00:08:00,52.5,27.6,29.87,South,186,1.0,4.0,38,0.00,,,0.00,LWC V2.11 B50,2013-02-27 06:08:00,
2013-02-27 00:13:00,52.5,27.6,29.87,South,171,0.0,2.0,38,0.00,,,0.00,LWC V2.11 B50,2013-02-27 06:13:00,
2013-02-27 00:18:00,52.4,27.5,29.87,South,189,1.0,2.0,38,0.00,,,0.00,LWC V2.11 B50,2013-02-27 06:18:00,
2013-02-27 00:23:00,52.2,28.0,29.87,South,190,2.0,3.0,39,0.00,,,0.00,LWC V2.11 B50,2013-02-27 06:23:00,
2013-02-27 00:28:00,51.9,28.3,29.87,South,191,1.0,3.0,40,0.00,,,0.00,LWC V2.11 B50,2013-02-27 06:28:00,
2013-02-27 00:33:00,51.7,28.2,29.88,SSW,194,2.0,2.0,40,0.00,,,0.00,LWC V2.11 B50,2013-02-27 06:33:00,
2013-02-27 00:38:00,51.5,28.0,29.88,SSW,194,0.0,0.0,40,0.00,,,0.00,LWC V2.11 B50,2013-02-27 06:38:00,
2013-02-27 00:43:00,51.2,28.3,29.89,SSW,192,0.0,2.0,41,0.00,,,0.00,LWC V2.11 B50,2013-02-27 06:43:00,
2013-02-27 00:48:00,51.0,28.1,29.88,SSW,192,0.0,1.0,41,0.00,,,0.00,LWC V2.11 B50,2013-02-27 06:48:00,
2013-02-27 00:53:00,50.6,28.9,29.88,SSW,192,0.0,1.0,43,0.00,,,0.00,LWC V2.11 B50,2013-02-27 06:53:00,
2013-02-27 00:58:00,50.3,29.2,29.89,SSW,193,0.0,1.0,44,0.00,,,0.00,LWC V2.11 B50,2013-02-27 06:58:00,
2013-02-27 01:03:00,50.1,28.5,29.89,SSW,202,1.0,4.0,43,0.00,,,0.00,LWC V2.11 B50,2013-02-27 07:03:00,
2013-02-27 01:08:00,50.1,28.5,29.89,SSW,203,0.0,0.0,43,0.00,,,0.00,LWC V2.11 B50,2013-02-27 07:08:00,
2013-02-27 01:13:00,50.1,29.0,29.89,SSW,203,1.0,1.0,44,0.00,,,0.00,LWC V2.11 B50,2013-02-27 07:13:00,
2013-02-27 01:18:00,50.0,29.0,29.89,South,191,1.0,3.0,44,0.00,,,0.00,LWC V2.11 B50,2013-02-27 07:18:00,
2013-02-27 01:23:00,49.9,29.4,29.89,SSW,194,0.0,0.0,45,0.00,,,0.00,LWC V2.11 B50,2013-02-27 07:23:00,
2013-02-27 01:28:00,49.6,29.7,29.89,SSW,194,0.0,0.0,46,0.00,,,0.00,LWC V2.11 B50,2013-02-27 07:28:00,
2013-02-27 01:33:00,49.2,29.3,29.89,SSW,194,0.0,1.0,46,0.00,,,0.00,LWC V2.11 B50,2013-02-27 07:33:00,
2013-02-27 01:38:00,49.0,29.7,29.89,SSW,194,0.0,1.0,47,0.00,,,0.00,LWC V2.11 B50,2013-02-27 07:38:00,
2013-02-27 01:44:00,48.7,30.4,29.89,SSW,194,0.0,0.0,49,0.00,,,0.00,LWC V2.11 B50,2013-02-27 07:44:00,
2013-02-27 01:49:00,48.5,30.7,29.89,SSW,194,0.0,0.0,50,0.00,,,0.00,LWC V2.11 B50,2013-02-27 07:49:00,
2013-02-27 01:54:00,48.1,30.3,29.88,SSW,194,0.0,0.0,50,0.00,,,0.00,LWC V2.11 B50,2013-02-27 07:54:00,
2013-02-27 01:59:00,47.8,31.0,29.88,SSW,194,0.0,0.0,52,0.00,,,0.00,LWC V2.11 B50,2013-02-27 07:59:00,
2013-02-27 02:04:00,47.5,30.3,29.89,SSW,194,0.0,0.0,51,0.00,,,0.00,LWC V2.11 B50,2013-02-27 08:04:00,
2013-02-27 02:09:00,47.4,30.2,29.89,SSW,194,0.0,0.0,51,0.00,,,0.00,LWC V2.11 B50,2013-02-27 08:09:00,
2013-02-27 02:14:00,47.2,30.5,29.89,SSW,194,0.0,0.0,52,0.00,,,0.00,LWC V2.11 B50,2013-02-27 08:14:00,
2013-02-27 02:19:00,46.9,30.7,29.88,SSW,194,0.0,0.0,53,0.00,,,0.00,LWC V2.11 B50,2013-02-27 08:19:00,
2013-02-27 02:24:00,46.6,30.9,29.89,SSW,194,0.0,0.0,54,0.00,,,0.00,LWC V2.11 B50,2013-02-27 08:24:00,
2013-02-27 02:29:00,46.5,30.3,29.89,SSW,194,0.0,2.0,53,0.00,,,0.00,LWC V2.11 B50,2013-02-27 08:29:00,
2013-02-27 02:34:00,46.7,30.9,29.89,SSW,201,1.0,1.0,54,0.00,,,0.00,LWC V2.11 B50,2013-02-27 08:34:00,
2013-02-27 02:39:00,46.9,30.7,29.88,SSW,201,0.0,0.0,53,0.00,,,0.00,LWC V2.11 B50,2013-02-27 08:39:00,
2013-02-27 02:44:00,47.0,31.2,29.88,SSW,201,0.0,0.0,54,0.00,,,0.00,LWC V2.11 B50,2013-02-27 08:44:00,
2013-02-27 02:49:00,47.1,30.9,29.89,SSW,201,0.0,0.0,53,0.00,,,0.00,LWC V2.11 B50,2013-02-27 08:49:00,
2013-02-27 02:54:00,47.3,31.5,29.89,SSW,201,0.0,0.0,54,0.00,,,0.00,LWC V2.11 B50,2013-02-27 08:54:00,
2013-02-27 02:59:00,47.6,32.2,29.89,SSW,201,0.0,2.0,55,0.00,,,0.00,LWC V2.11 B50,2013-02-27 08:59:00,
2013-02-27 03:04:00,47.9,33.0,29.89,SSW,201,0.0,1.0,56,0.00,,,0.00,LWC V2.11 B50,2013-02-27 09:04:00,
2013-02-27 03:09:00,48.5,34.0,29.89,SSW,201,2.0,2.0,57,0.00,,,0.00,LWC V2.11 B50,2013-02-27 09:09:00,
2013-02-27 03:14:00,49.3,34.7,29.90,South,178,2.0,4.0,57,0.00,,,0.00,LWC V2.11 B50,2013-02-27 09:14:00,
2013-02-27 03:19:00,50.0,35.4,29.89,South,178,2.0,2.0,57,0.00,,,0.00,LWC V2.11 B50,2013-02-27 09:19:00,
2013-02-27 03:24:00,50.5,35.8,29.89,South,179,2.0,2.0,57,0.00,,,0.00,LWC V2.11 B50,2013-02-27 09:24:00,
2013-02-27 03:29:00,50.9,36.2,29.89,South,179,0.0,1.0,57,0.00,,,0.00,LWC V2.11 B50,2013-02-27 09:29:00,
2013-02-27 03:34:00,51.0,36.3,29.89,South,179,0.0,2.0,57,0.00,,,0.00,LWC V2.11 B50,2013-02-27 09:34:00,
2013-02-27 03:39:00,51.0,36.7,29.89,South,180,0.0,2.0,58,0.00,,,0.00,LWC V2.11 B50,2013-02-27 09:39:00,
2013-02-27 03:44:00,51.0,37.2,29.89,South,180,0.0,1.0,59,0.00,,,0.00,LWC V2.11 B50,2013-02-27 09:44:00,
2013-02-27 03:49:00,51.0,37.6,29.89,South,182,0.0,1.0,60,0.00,,,0.00,LWC V2.11 B50,2013-02-27 09:49:00,
2013-02-27 03:54:00,50.9,37.9,29.89,South,182,1.0,2.0,61,0.00,,,0.00,LWC V2.11 B50,2013-02-27 09:54:00,
2013-02-27 03:59:00,50.9,37.9,29.89,South,191,0.0,1.0,61,0.00,,,0.00,LWC V2.11 B50,2013-02-27 09:59:00,
2013-02-27 04:04:00,50.7,38.2,29.89,South,191,0.0,0.0,62,0.00,,,0.00,LWC V2.11 B50,2013-02-27 10:04:00,
2013-02-27 04:09:00,50.6,38.1,29.89,South,191,0.0,1.0,62,0.00,,,0.00,LWC V2.11 B50,2013-02-27 10:09:00,
2013-02-27 04:15:00,50.5,38.4,29.89,South,191,0.0,1.0,63,0.00,,,0.00,LWC V2.11 B50,2013-02-27 10:15:00,
2013-02-27 04:20:00,50.3,38.2,29.89,South,191,0.0,2.0,63,0.00,,,0.00,LWC V2.11 B50,2013-02-27 10:20:00,
2013-02-27 04:25:00,50.0,37.9,29.89,South,191,0.0,0.0,63,0.00,,,0.00,LWC V2.11 B50,2013-02-27 10:25:00,
2013-02-27 04:30:00,49.8,38.1,29.90,South,191,0.0,0.0,64,0.00,,,0.00,LWC V2.11 B50,2013-02-27 10:30:00,
2013-02-27 04:35:00,49.4,37.7,29.90,South,191,0.0,0.0,64,0.00,,,0.00,LWC V2.11 B50,2013-02-27 10:35:00,
2013-02-27 04:40:00,49.1,37.8,29.90,South,191,0.0,0.0,65,0.00,,,0.00,LWC V2.11 B50,2013-02-27 10:40:00,
2013-02-27 04:45:00,48.8,37.6,29.91,South,191,0.0,0.0,65,0.00,,,0.00,LWC V2.11 B50,2013-02-27 10:45:00,
2013-02-27 04:50:00,48.7,37.5,29.91,South,191,0.0,1.0,65,0.00,,,0.00,LWC V2.11 B50,2013-02-27 10:50:00,
2013-02-27 04:55:00,48.4,37.2,29.91,South,191,0.0,1.0,65,0.00,,,0.00,LWC V2.11 B50,2013-02-27 10:55:00,
2013-02-27 05:00:00,48.0,37.2,29.91,South,191,0.0,0.0,66,0.00,,,0.00,LWC V2.11 B50,2013-02-27 11:00:00,
2013-02-27 05:05:00,47.6,36.4,29.92,South,191,0.0,1.0,65,0.00,,,0.00,LWC V2.11 B50,2013-02-27 11:05:00,
2013-02-27 05:10:00,47.0,36.2,29.92,South,191,1.0,2.0,66,0.00,,,0.00,LWC V2.11 B50,2013-02-27 11:10:00,
2013-02-27 05:15:00,46.2,35.5,29.95,NNW,328,6.0,8.0,66,0.00,,,0.00,LWC V2.11 B50,2013-02-27 11:15:00,
2013-02-27 05:20:00,45.9,35.6,29.95,WNW,288,1.0,6.0,67,0.00,,,0.00,LWC V2.11 B50,2013-02-27 11:20:00,
2013-02-27 05:25:00,45.8,35.5,29.95,West,273,2.0,6.0,67,0.00,,,0.00,LWC V2.11 B50,2013-02-27 11:25:00,
2013-02-27 05:30:00,45.5,35.2,29.95,WNW,292,4.0,4.0,67,0.00,,,0.00,LWC V2.11 B50,2013-02-27 11:30:00,
2013-02-27 05:35:00,45.4,35.1,29.95,NW,307,2.0,4.0,67,0.00,,,0.00,LWC V2.11 B50,2013-02-27 11:35:00,
2013-02-27 05:40:00,45.5,35.2,29.96,WNW,302,4.0,6.0,67,0.00,,,0.00,LWC V2.11 B50,2013-02-27 11:40:00,
2013-02-27 05:45:00,45.9,35.2,29.96,West,279,2.0,7.0,66,0.00,,,0.00,LWC V2.11 B50,2013-02-27 11:45:00,
2013-02-27 05:50:00,46.9,35.0,29.96,NW,315,5.0,7.0,63,0.00,,,0.00,LWC V2.11 B50,2013-02-27 11:50:00,
2013-02-27 05:55:00,47.6,34.8,29.96,WNW,294,4.0,5.0,61,0.00,,,0.00,LWC V2.11 B50,2013-02-27 11:55:00,
2013-02-27 06:00:00,48.0,34.4,29.96,WNW,285,0.0,4.0,59,0.00,,,0.00,LWC V2.11 B50,2013-02-27 12:00:00,
2013-02-27 06:05:00,48.2,34.1,29.97,WNW,296,4.0,4.0,58,0.00,,,0.00,LWC V2.11 B50,2013-02-27 12:05:00,
2013-02-27 06:10:00,48.3,33.8,29.97,WNW,296,0.0,4.0,57,0.00,,,0.00,LWC V2.11 B50,2013-02-27 12:10:00,
2013-02-27 06:15:00,48.4,33.0,29.97,WNW,296,0.0,2.0,55,0.00,,,0.00,LWC V2.11 B50,2013-02-27 12:15:00,
2013-02-27 06:20:00,48.6,32.7,29.97,WNW,296,1.0,4.0,54,0.00,,,0.00,LWC V2.11 B50,2013-02-27 12:20:00,
2013-02-27 06:25:00,49.1,32.2,29.96,WNW,296,0.0,0.0,52,0.00,,,0.00,LWC V2.11 B50,2013-02-27 12:25:00,
2013-02-27 06:30:00,49.4,32.5,29.96,WNW,296,0.0,0.0,52,0.00,,,0.00,LWC V2.11 B50,2013-02-27 12:30:00,
2013-02-27 06:35:00,49.4,32.0,29.96,WNW,296,0.0,0.0,51,0.00,,,0.00,LWC V2.11 B50,2013-02-27 12:35:00,
2013-02-27 06:40:00,49.5,31.1,29.97,WNW,296,1.0,4.0,49,0.00,,,0.00,LWC V2.11 B50,2013-02-27 12:40:00,
2013-02-27 06:46:00,50.1,31.2,29.97,WNW,294,0.0,0.0,48,0.00,,,0.00,LWC V2.11 B50,2013-02-27 12:46:00,
2013-02-27 06:51:00,50.5,30.5,29.97,WNW,294,0.0,2.0,46,0.00,,,0.00,LWC V2.11 B50,2013-02-27 12:51:00,
2013-02-27 06:56:00,50.8,30.8,29.97,WNW,294,0.0,1.0,46,0.00,,,0.00,LWC V2.11 B50,2013-02-27 12:56:00,
2013-02-27 07:01:00,50.9,30.3,29.98,WNW,294,1.0,1.0,45,0.00,,,0.00,LWC V2.11 B50,2013-02-27 13:01:00,
2013-02-27 07:06:00,51.1,30.0,29.98,WNW,294,0.0,1.0,44,0.00,,,0.00,LWC V2.11 B50,2013-02-27 13:06:00,
2013-02-27 07:11:00,51.2,30.0,29.98,WNW,294,0.0,0.0,44,0.00,,,0.00,LWC V2.11 B50,2013-02-27 13:11:00,
2013-02-27 07:16:00,51.1,29.4,29.98,WNW,294,0.0,0.0,43,0.00,,,0.00,LWC V2.11 B50,2013-02-27 13:16:00,
2013-02-27 07:21:00,50.9,29.2,29.99,WNW,294,0.0,0.0,43,0.00,,,0.00,LWC V2.11 B50,2013-02-27 13:21:00,
2013-02-27 07:26:00,50.7,29.6,29.99,WNW,294,0.0,0.0,44,0.00,,,0.00,LWC V2.11 B50,2013-02-27 13:26:00,
2013-02-27 07:31:00,50.5,28.8,29.99,WNW,294,0.0,0.0,43,0.00,,,0.00,LWC V2.11 B50,2013-02-27 13:31:00,
2013-02-27 07:36:00,50.5,28.8,30.00,WNW,294,0.0,0.0,43,0.00,,,0.00,LWC V2.11 B50,2013-02-27 13:36:00,
2013-02-27 07:41:00,50.5,28.8,30.00,WNW,294,0.0,1.0,43,0.00,,,0.00,LWC V2.11 B50,2013-02-27 13:41:00,
2013-02-27 07:46:00,50.9,29.2,30.01,WNW,294,1.0,2.0,43,0.00,,,0.00,LWC V2.11 B50,2013-02-27 13:46:00,
2013-02-27 07:51:00,51.4,28.5,30.01,NW,305,4.0,5.0,41,0.00,,,0.00,LWC V2.11 B50,2013-02-27 13:51:00,
2013-02-27 07:56:00,52.5,27.6,30.01,WNW,300,2.0,11.0,38,0.00,,,0.00,LWC V2.11 B50,2013-02-27 13:56:00,
2013-02-27 08:01:00,53.6,28.0,30.02,WNW,300,4.0,7.0,37,0.00,,,0.00,LWC V2.11 B50,2013-02-27 14:01:00,
2013-02-27 08:07:00,54.1,28.4,30.02,NW,316,5.0,7.0,37,0.00,,,0.00,LWC V2.11 B50,2013-02-27 14:07:00,
2013-02-27 08:12:00,54.8,28.4,30.02,NW,314,9.0,16.0,36,0.00,,,0.00,LWC V2.11 B50,2013-02-27 14:12:00,
2013-02-27 08:17:00,55.5,28.3,30.03,North,355,6.0,15.0,35,0.00,,,0.00,LWC V2.11 B50,2013-02-27 14:17:00,
2013-02-27 08:22:00,55.9,27.9,30.03,NW,325,11.0,15.0,34,0.00,,,0.00,LWC V2.11 B50,2013-02-27 14:22:00,
2013-02-27 08:27:00,55.9,27.9,30.04,WNW,298,9.0,17.0,34,0.00,,,0.00,LWC V2.11 B50,2013-02-27 14:27:00,
2013-02-27 08:32:00,55.8,28.6,30.04,NNW,332,10.0,14.0,35,0.00,,,0.00,LWC V2.11 B50,2013-02-27 14:32:00,
2013-02-27 08:37:00,55.8,29.3,30.05,NW,316,10.0,12.0,36,0.00,,,0.00,LWC V2.11 B50,2013-02-27 14:37:00,
2013-02-27 08:42:00,55.7,29.2,30.05,NNW,329,8.0,17.0,36,0.00,,,0.00,LWC V2.11 B50,2013-02-27 14:42:00,
2013-02-27 08:47:00,55.6,29.7,30.05,NNW,342,19.0,19.0,37,0.00,,,0.00,LWC V2.11 B50,2013-02-27 14:47:00,
2013-02-27 08:52:00,55.5,29.7,30.05,NNE,13,6.0,15.0,37,0.00,,,0.00,LWC V2.11 B50,2013-02-27 14:52:00,
2013-02-27 08:57:00,55.5,29.7,30.06,NW,323,10.0,19.0,37,0.00,,,0.00,LWC V2.11 B50,2013-02-27 14:57:00,
2013-02-27 09:02:00,55.4,30.2,30.06,North,349,4.0,18.0,38,0.00,,,0.00,LWC V2.11 B50,2013-02-27 15:02:00,
2013-02-27 09:07:00,55.4,30.9,30.07,NNW,329,17.0,18.0,39,0.00,,,0.00,LWC V2.11 B50,2013-02-27 15:07:00,
2013-02-27 09:12:00,55.2,31.3,30.07,NNW,344,13.0,24.0,40,0.00,,,0.00,LWC V2.11 B50,2013-02-27 15:12:00,
2013-02-27 09:17:00,54.9,31.6,30.08,NW,315,23.0,26.0,41,0.00,,,0.00,LWC V2.11 B50,2013-02-27 15:17:00,
2013-02-27 09:22:00,54.1,32.1,30.08,NW,312,14.0,21.0,43,0.00,,,0.00,LWC V2.11 B50,2013-02-27 15:22:00,
2013-02-27 09:27:00,53.4,32.6,30.09,NNW,342,11.0,25.0,45,0.00,,,0.00,LWC V2.11 B50,2013-02-27 15:27:00,
2013-02-27 09:32:00,52.8,32.1,30.09,NNW,334,8.0,20.0,45,0.00,,,0.00,LWC V2.11 B50,2013-02-27 15:32:00,
2013-02-27 09:37:00,52.7,32.5,30.09,North,0,9.0,21.0,46,0.00,,,0.00,LWC V2.11 B50,2013-02-27 15:37:00,
2013-02-27 09:42:00,52.9,32.7,30.10,NW,318,7.0,18.0,46,0.00,,,0.00,LWC V2.11 B50,2013-02-27 15:42:00,
2013-02-27 09:47:00,52.8,32.6,30.10,WNW,285,9.0,24.0,46,0.00,,,0.00,LWC V2.11 B50,2013-02-27 15:47:00,
2013-02-27 09:52:00,52.6,33.0,30.10,NNW,333,6.0,24.0,47,0.00,,,0.00,LWC V2.11 B50,2013-02-27 15:52:00,
2013-02-27 09:57:00,53.6,33.9,30.10,NNW,331,7.0,14.0,47,0.00,,,0.00,LWC V2.11 B50,2013-02-27 15:57:00,
2013-02-27 10:02:00,53.8,33.5,30.10,NW,319,12.0,22.0,46,0.00,,,0.00,LWC V2.11 B50,2013-02-27 16:02:00,
2013-02-27 10:07:00,53.8,33.5,30.10,NNW,336,9.0,23.0,46,0.00,,,0.00,LWC V2.11 B50,2013-02-27 16:07:00,
2013-02-27 10:12:00,54.3,34.0,30.10,North,355,11.0,20.0,46,0.00,,,0.00,LWC V2.11 B50,2013-02-27 16:12:00,
2013-02-27 10:17:00,54.8,34.4,30.10,NNW,328,14.0,19.0,46,0.00,,,0.00,LWC V2.11 B50,2013-02-27 16:17:00,
2013-02-27 10:22:00,54.8,33.9,30.11,NW,325,17.0,23.0,45,0.00,,,0.00,LWC V2.11 B50,2013-02-27 16:22:00,
2013-02-27 10:27:00,55.0,33.5,30.11,North,350,16.0,19.0,44,0.00,,,0.00,LWC V2.11 B50,2013-02-27 16:27:00,
2013-02-27 10:33:00,55.7,34.1,30.11,NNW,338,10.0,26.0,44,0.00,,,0.00,LWC V2.11 B50,2013-02-27 16:33:00,
2013-02-27 10:38:00,55.6,33.5,30.11,WNW,300,13.0,26.0,43,0.00,,,0.00,LWC V2.11 B50,2013-02-27 16:38:00,
2013-02-27 10:43:00,55.6,33.5,30.11,NW,313,20.0,23.0,43,0.00,,,0.00,LWC V2.11 B50,2013-02-27 16:43:00,
2013-02-27 10:48:00,56.0,33.8,30.11,NNW,340,16.0,20.0,43,0.00,,,0.00,LWC V2.11 B50,2013-02-27 16:48:00,
2013-02-27 10:53:00,56.2,33.4,30.11,NNW,341,11.0,16.0,42,0.00,,,0.00,LWC V2.11 B50,2013-02-27 16:53:00,
2013-02-27 10:58:00,56.4,33.6,30.11,NNW,342,13.0,18.0,42,0.00,,,0.00,LWC V2.11 B50,2013-02-27 16:58:00,
2013-02-27 11:03:00,56.7,33.9,30.12,NW,324,8.0,17.0,42,0.00,,,0.00,LWC V2.11 B50,2013-02-27 17:03:00,
2013-02-27 11:08:00,56.7,33.9,30.12,NNE,22,3.0,22.0,42,0.00,,,0.00,LWC V2.11 B50,2013-02-27 17:08:00,
2013-02-27 11:13:00,57.1,34.2,30.12,NW,306,7.0,26.0,42,0.00,,,0.00,LWC V2.11 B50,2013-02-27 17:13:00,
2013-02-27 11:18:00,57.2,33.7,30.12,WNW,293,6.0,19.0,41,0.00,,,0.00,LWC V2.11 B50,2013-02-27 17:18:00,
2013-02-27 11:23:00,57.5,34.0,30.12,North,355,4.0,14.0,41,0.00,,,0.00,LWC V2.11 B50,2013-02-27 17:23:00,
2013-02-27 11:28:00,57.9,33.7,30.12,WNW,298,13.0,17.0,40,0.00,,,0.00,LWC V2.11 B50,2013-02-27 17:28:00,
2013-02-27 11:33:00,58.3,34.1,30.12,WNW,288,13.0,20.0,40,0.00,,,0.00,LWC V2.11 B50,2013-02-27 17:33:00,
2013-02-27 11:38:00,58.8,34.5,30.12,NNW,331,10.0,22.0,40,0.00,,,0.00,LWC V2.11 B50,2013-02-27 17:38:00,
2013-02-27 11:43:00,58.8,34.5,30.12,NNW,340,12.0,19.0,40,0.00,,,0.00,LWC V2.11 B50,2013-02-27 17:43:00,
2013-02-27 11:48:00,59.3,35.0,30.12,NNW,332,15.0,21.0,40,0.00,,,0.00,LWC V2.11 B50,2013-02-27 17:48:00,
2013-02-27 11:53:00,59.3,34.3,30.12,NNE,15,19.0,23.0,39,0.00,,,0.00,LWC V2.11 B50,2013-02-27 17:53:00,
2013-02-27 11:58:00,59.8,34.8,30.12,North,5,16.0,21.0,39,0.00,,,0.00,LWC V2.11 B50,2013-02-27 17:58:00,
2013-02-27 12:03:00,59.3,33.7,30.12,NNW,339,15.0,19.0,38,0.00,,,0.00,LWC V2.11 B50,2013-02-27 18:03:00,
2013-02-27 12:08:00,59.3,33.7,30.12,NW,324,7.0,23.0,38,0.00,,,0.00,LWC V2.11 B50,2013-02-27 18:08:00,
2013-02-27 12:13:00,59.2,34.3,30.12,NW,310,20.0,20.0,39,0.00,,,0.00,LWC V2.11 B50,2013-02-27 18:13:00,
2013-02-27 12:18:00,59.6,34.0,30.12,NNW,333,8.0,18.0,38,0.00,,,0.00,LWC V2.11 B50,2013-02-27 18:18:00,
2013-02-27 12:23:00,60.1,34.4,30.13,North,5,10.0,21.0,38,0.00,,,0.00,LWC V2.11 B50,2013-02-27 18:23:00,
2013-02-27 12:28:00,59.6,34.0,30.13,NW,323,21.0,21.0,38,0.00,,,0.00,LWC V2.11 B50,2013-02-27 18:28:00,
2013-02-27 12:33:00,60.4,34.7,30.13,NNW,333,11.0,17.0,38,0.00,,,0.00,LWC V2.11 B50,2013-02-27 18:33:00,
2013-02-27 12:38:00,60.0,34.3,30.13,NNW,327,8.0,16.0,38,0.00,,,0.00,LWC V2.11 B50,2013-02-27 18:38:00,
2013-02-27 12:43:00,60.1,35.1,30.13,NNW,332,9.0,9.0,39,0.00,,,0.00,LWC V2.11 B50,2013-02-27 18:43:00,
2013-02-27 12:48:00,60.5,34.8,30.13,NW,310,7.0,9.0,38,0.00,,,0.00,LWC V2.11 B50,2013-02-27 18:48:00,
2013-02-27 12:53:00,60.4,33.3,30.13,NNW,340,12.0,20.0,36,0.00,,,0.00,LWC V2.11 B50,2013-02-27 18:53:00,
2013-02-27 12:58:00,60.7,34.3,30.13,NNE,18,8.0,13.0,37,0.00,,,0.00,LWC V2.11 B50,2013-02-27 18:58:00,
2013-02-27 13:04:00,61.1,33.9,30.12,NW,321,6.0,16.0,36,0.00,,,0.00,LWC V2.11 B50,2013-02-27 19:04:00,
2013-02-27 13:09:00,61.2,34.0,30.12,NNW,343,9.0,16.0,36,0.00,,,0.00,LWC V2.11 B50,2013-02-27 19:09:00,
2013-02-27 13:14:00,61.5,35.0,30.12,NNW,340,8.0,8.0,37,0.00,,,0.00,LWC V2.11 B50,2013-02-27 19:14:00,
2013-02-27 13:19:00,61.3,34.1,30.12,NNW,338,5.0,9.0,36,0.00,,,0.00,LWC V2.11 B50,2013-02-27 19:19:00,
2013-02-27 13:24:00,62.0,34.7,30.12,NNW,334,2.0,9.0,36,0.00,,,0.00,LWC V2.11 B50,2013-02-27 19:24:00,
2013-02-27 13:29:00,61.9,33.9,30.11,North,355,12.0,14.0,35,0.00,,,0.00,LWC V2.11 B50,2013-02-27 19:29:00,
2013-02-27 13:34:00,61.0,34.5,30.11,NNW,342,10.0,11.0,37,0.00,,,0.00,LWC V2.11 B50,2013-02-27 19:34:00,
2013-02-27 13:39:00,60.9,34.5,30.11,WNW,296,2.0,16.0,37,0.00,,,0.00,LWC V2.11 B50,2013-02-27 19:39:00,
2013-02-27 13:44:00,61.4,33.5,30.11,NNE,18,9.0,18.0,35,0.00,,,0.00,LWC V2.11 B50,2013-02-27 19:44:00,
2013-02-27 13:49:00,61.4,33.5,30.12,NNW,342,9.0,15.0,35,0.00,,,0.00,LWC V2.11 B50,2013-02-27 19:49:00,
2013-02-27 13:54:00,61.4,33.5,30.11,North,5,8.0,13.0,35,0.00,,,0.00,LWC V2.11 B50,2013-02-27 19:54:00,
2013-02-27 13:59:00,61.2,32.6,30.11,NNW,332,9.0,17.0,34,0.00,,,0.00,LWC V2.11 B50,2013-02-27 19:59:00,
2013-02-27 14:04:00,61.4,32.0,30.11,NNW,347,6.0,15.0,33,0.00,,,0.00,LWC V2.11 B50,2013-02-27 20:04:00,
2013-02-27 14:09:00,61.5,31.4,30.11,West,271,6.0,15.0,32,0.00,,,0.00,LWC V2.11 B50,2013-02-27 20:09:00,
2013-02-27 14:14:00,61.9,31.7,30.11,WNW,302,8.0,17.0,32,0.00,,,0.00,LWC V2.11 B50,2013-02-27 20:14:00,
2013-02-27 14:19:00,61.8,31.6,30.11,NNW,331,9.0,19.0,32,0.00,,,0.00,LWC V2.11 B50,2013-02-27 20:19:00,
2013-02-27 14:24:00,62.0,31.0,30.11,NNW,342,0.0,12.0,31,0.00,,,0.00,LWC V2.11 B50,2013-02-27 20:24:00,
2013-02-27 14:29:00,62.5,31.5,30.11,WNW,284,13.0,18.0,31,0.00,,,0.00,LWC V2.11 B50,2013-02-27 20:29:00,
2013-02-27 14:34:00,62.5,29.8,30.11,North,5,9.0,17.0,29,0.00,,,0.00,LWC V2.11 B50,2013-02-27 20:34:00,
2013-02-27 14:39:00,62.5,29.8,30.11,NNW,345,13.0,17.0,29,0.00,,,0.00,LWC V2.11 B50,2013-02-27 20:39:00,
2013-02-27 14:44:00,62.7,29.1,30.11,NW,313,9.0,17.0,28,0.00,,,0.00,LWC V2.11 B50,2013-02-27 20:44:00,
2013-02-27 14:49:00,62.6,29.0,30.11,NNW,334,6.0,17.0,28,0.00,,,0.00,LWC V2.11 B50,2013-02-27 20:49:00,
2013-02-27 14:54:00,62.6,29.0,30.10,WNW,297,6.0,15.0,28,0.00,,,0.00,LWC V2.11 B50,2013-02-27 20:54:00,
2013-02-27 14:59:00,63.2,27.7,30.10,NNW,344,8.0,13.0,26,0.00,,,0.00,LWC V2.11 B50,2013-02-27 20:59:00,
2013-02-27 15:04:00,63.1,28.6,30.10,WNW,284,5.0,13.0,27,0.00,,,0.00,LWC V2.11 B50,2013-02-27 21:04:00,
2013-02-27 15:09:00,63.4,27.9,30.10,NNW,328,12.0,16.0,26,0.00,,,0.00,LWC V2.11 B50,2013-02-27 21:09:00,
2013-02-27 15:14:00,63.4,28.8,30.09,NW,311,8.0,17.0,27,0.00,,,0.00,LWC V2.11 B50,2013-02-27 21:14:00,
2013-02-27 15:19:00,63.6,29.0,30.09,NNW,333,10.0,15.0,27,0.00,,,0.00,LWC V2.11 B50,2013-02-27 21:19:00,
2013-02-27 15:24:00,63.6,29.0,30.09,NNE,17,4.0,12.0,27,0.00,,,0.00,LWC V2.11 B50,2013-02-27 21:24:00,
2013-02-27 15:29:00,63.9,29.3,30.09,NW,304,6.0,8.0,27,0.00,,,0.00,LWC V2.11 B50,2013-02-27 21:29:00,
2013-02-27 15:35:00,63.8,28.3,30.09,WNW,301,6.0,18.0,26,0.00,,,0.00,LWC V2.11 B50,2013-02-27 21:35:00,
2013-02-27 15:40:00,63.9,28.3,30.09,North,355,11.0,15.0,26,0.00,,,0.00,LWC V2.11 B50,2013-02-27 21:40:00,
2013-02-27 15:45:00,63.0,27.6,30.10,NNW,340,13.0,20.0,26,0.00,,,0.00,LWC V2.11 B50,2013-02-27 21:45:00,
2013-02-27 15:50:00,63.1,28.6,30.10,NNW,331,4.0,13.0,27,0.00,,,0.00,LWC V2.11 B50,2013-02-27 21:50:00,
2013-02-27 15:55:00,63.4,27.9,30.09,NNW,344,6.0,9.0,26,0.00,,,0.00,LWC V2.11 B50,2013-02-27 21:55:00,
2013-02-27 16:00:00,63.3,27.8,30.10,NNE,13,7.0,15.0,26,0.00,,,0.00,LWC V2.11 B50,2013-02-27 22:00:00,
2013-02-27 16:05:00,62.7,28.2,30.10,North,9,6.0,10.0,27,0.00,,,0.00,LWC V2.11 B50,2013-02-27 22:05:00,
2013-02-27 16:10:00,63.0,28.5,30.10,North,0,7.0,11.0,27,0.00,,,0.00,LWC V2.11 B50,2013-02-27 22:10:00,
2013-02-27 16:15:00,62.8,27.4,30.10,NNE,21,5.0,19.0,26,0.00,,,0.00,LWC V2.11 B50,2013-02-27 22:15:00,
2013-02-27 16:20:00,63.0,27.6,30.10,NW,307,12.0,12.0,26,0.00,,,0.00,LWC V2.11 B50,2013-02-27 22:20:00,
2013-02-27 16:25:00,63.0,27.6,30.10,WNW,300,8.0,12.0,26,0.00,,,0.00,LWC V2.11 B50,2013-02-27 22:25:00,
2013-02-27 16:30:00,63.3,28.8,30.10,North,351,6.0,11.0,27,0.00,,,0.00,LWC V2.11 B50,2013-02-27 22:30:00,
2013-02-27 16:35:00,62.9,27.5,30.10,NNW,344,6.0,17.0,26,0.00,,,0.00,LWC V2.11 B50,2013-02-27 22:35:00,
2013-02-27 16:40:00,62.7,27.3,30.10,NW,324,5.0,15.0,26,0.00,,,0.00,LWC V2.11 B50,2013-02-27 22:40:00,
2013-02-27 16:45:00,62.4,27.1,30.11,NNW,344,6.0,15.0,26,0.00,,,0.00,LWC V2.11 B50,2013-02-27 22:45:00,
2013-02-27 16:50:00,62.4,27.1,30.11,NW,326,7.0,12.0,26,0.00,,,0.00,LWC V2.11 B50,2013-02-27 22:50:00,
2013-02-27 16:55:00,62.6,27.2,30.11,NNW,338,9.0,11.0,26,0.00,,,0.00,LWC V2.11 B50,2013-02-27 22:55:00,
2013-02-27 17:00:00,62.3,25.1,30.11,NNW,332,14.0,18.0,24,0.00,,,0.00,LWC V2.11 B50,2013-02-27 23:00:00,
2013-02-27 17:05:00,62.0,25.8,30.11,NW,325,13.0,14.0,25,0.00,,,0.00,LWC V2.11 B50,2013-02-27 23:05:00,
2013-02-27 17:10:00,61.7,25.5,30.11,NNW,328,1.0,6.0,25,0.00,,,0.00,LWC V2.11 B50,2013-02-27 23:10:00,
2013-02-27 17:15:00,61.6,25.4,30.11,NW,325,7.0,11.0,25,0.00,,,0.00,LWC V2.11 B50,2013-02-27 23:15:00,
2013-02-27 17:20:00,61.4,25.3,30.11,North,350,10.0,13.0,25,0.00,,,0.00,LWC V2.11 B50,2013-02-27 23:20:00,
2013-02-27 17:25:00,61.3,25.2,30.11,NW,321,11.0,11.0,25,0.00,,,0.00,LWC V2.11 B50,2013-02-27 23:25:00,
2013-02-27 17:30:00,61.1,25.0,30.11,North,350,8.0,11.0,25,0.00,,,0.00,LWC V2.11 B50,2013-02-27 23:30:00,
2013-02-27 17:35:00,61.0,24.9,30.12,North,11,8.0,11.0,25,0.00,,,0.00,LWC V2.11 B50,2013-02-27 23:35:00,
2013-02-27 17:40:00,60.8,25.7,30.11,North,355,5.0,7.0,26,0.00,,,0.00,LWC V2.11 B50,2013-02-27 23:40:00,
2013-02-27 17:45:00,60.5,25.4,30.12,North,5,3.0,6.0,26,0.00,,,0.00,LWC V2.11 B50,2013-02-27 23:45:00,
2013-02-27 17:50:00,60.4,25.4,30.11,NNW,327,5.0,9.0,26,0.00,,,0.00,LWC V2.11 B50,2013-02-27 23:50:00,
2013-02-27 17:55:00,60.5,26.4,30.12,NW,312,7.0,9.0,27,0.00,,,0.00,LWC V2.11 B50,2013-02-27 23:55:00,
2013-02-27 18:01:00,60.4,26.3,30.12,North,355,4.0,8.0,27,0.00,,,0.00,LWC V2.11 B50,2013-02-28 00:01:00,
2013-02-27 18:06:00,60.2,26.1,30.12,North,355,7.0,8.0,27,0.00,,,0.00,LWC V2.11 B50,2013-02-28 00:06:00,
2013-02-27 18:11:00,59.9,26.7,30.12,NNW,339,1.0,7.0,28,0.00,,,0.00,LWC V2.11 B50,2013-02-28 00:11:00,
2013-02-27 18:16:00,59.6,26.5,30.12,NNW,343,5.0,7.0,28,0.00,,,0.00,LWC V2.11 B50,2013-02-28 00:16:00,
2013-02-27 18:21:00,59.4,27.1,30.13,NNW,340,0.0,4.0,29,0.00,,,0.00,LWC V2.11 B50,2013-02-28 00:21:00,
2013-02-27 18:26:00,59.1,26.9,30.13,NNW,342,4.0,5.0,29,0.00,,,0.00,LWC V2.11 B50,2013-02-28 00:26:00,
2013-02-27 18:31:00,58.8,27.4,30.13,NNW,337,1.0,5.0,30,0.00,,,0.00,LWC V2.11 B50,2013-02-28 00:31:00,
2013-02-27 18:36:00,58.6,27.3,30.14,NNW,336,4.0,4.0,30,0.00,,,0.00,LWC V2.11 B50,2013-02-28 00:36:00,
2013-02-27 18:41:00,58.3,27.8,30.14,NNW,340,1.0,4.0,31,0.00,,,0.00,LWC V2.11 B50,2013-02-28 00:41:00,
2013-02-27 18:46:00,58.0,27.5,30.14,NNW,333,4.0,5.0,31,0.00,,,0.00,LWC V2.11 B50,2013-02-28 00:46:00,
2013-02-27 18:51:00,57.6,28.0,30.14,NNW,329,1.0,4.0,32,0.00,,,0.00,LWC V2.11 B50,2013-02-28 00:51:00,
2013-02-27 18:56:00,57.4,27.8,30.15,NNW,333,2.0,5.0,32,0.00,,,0.00,LWC V2.11 B50,2013-02-28 00:56:00,
2013-02-27 19:01:00,57.2,28.4,30.15,NW,323,1.0,7.0,33,0.00,,,0.00,LWC V2.11 B50,2013-02-28 01:01:00,
2013-02-27 19:06:00,57.1,28.3,30.14,NNW,345,4.0,4.0,33,0.00,,,0.00,LWC V2.11 B50,2013-02-28 01:06:00,
2013-02-27 19:11:00,56.8,28.0,30.15,NNW,341,1.0,5.0,33,0.00,,,0.00,LWC V2.11 B50,2013-02-28 01:11:00,
2013-02-27 19:16:00,56.6,28.6,30.15,NNW,341,2.0,4.0,34,0.00,,,0.00,LWC V2.11 B50,2013-02-28 01:16:00,
2013-02-27 19:21:00,56.4,28.4,30.16,NNW,348,4.0,6.0,34,0.00,,,0.00,LWC V2.11 B50,2013-02-28 01:21:00,
2013-02-27 19:26:00,56.2,28.9,30.16,North,355,4.0,5.0,35,0.00,,,0.00,LWC V2.11 B50,2013-02-28 01:26:00,
2013-02-27 19:31:00,56.0,28.7,30.16,NNW,333,2.0,4.0,35,0.00,,,0.00,LWC V2.11 B50,2013-02-28 01:31:00,
2013-02-27 19:36:00,55.7,28.5,30.16,NNW,339,2.0,4.0,35,0.00,,,0.00,LWC V2.11 B50,2013-02-28 01:36:00,
2013-02-27 19:41:00,55.5,29.0,30.16,NNW,340,4.0,5.0,36,0.00,,,0.00,LWC V2.11 B50,2013-02-28 01:41:00,
2013-02-27 19:46:00,55.3,28.8,30.16,NNW,336,4.0,5.0,36,0.00,,,0.00,LWC V2.11 B50,2013-02-28 01:46:00,
2013-02-27 19:51:00,55.1,28.6,30.16,NNW,329,1.0,5.0,36,0.00,,,0.00,LWC V2.11 B50,2013-02-28 01:51:00,
2013-02-27 19:56:00,54.9,29.1,30.16,NNW,329,2.0,2.0,37,0.00,,,0.00,LWC V2.11 B50,2013-02-28 01:56:00,
2013-02-27 20:01:00,54.7,28.9,30.17,NNW,348,4.0,4.0,37,0.00,,,0.00,LWC V2.11 B50,2013-02-28 02:01:00,
2013-02-27 20:06:00,54.6,28.9,30.18,NW,324,6.0,6.0,37,0.00,,,0.00,LWC V2.11 B50,2013-02-28 02:06:00,
2013-02-27 20:11:00,54.6,28.9,30.18,NNW,333,5.0,6.0,37,0.00,,,0.00,LWC V2.11 B50,2013-02-28 02:11:00,
2013-02-27 20:16:00,54.4,28.7,30.18,NNW,328,4.0,6.0,37,0.00,,,0.00,LWC V2.11 B50,2013-02-28 02:16:00,
2013-02-27 20:21:00,54.2,28.5,30.18,NNW,330,2.0,2.0,37,0.00,,,0.00,LWC V2.11 B50,2013-02-28 02:21:00,
2013-02-27 20:26:00,53.9,28.2,30.18,NNW,328,1.0,5.0,37,0.00,,,0.00,LWC V2.11 B50,2013-02-28 02:26:00,
2013-02-27 20:32:00,53.7,28.7,30.18,NW,325,1.0,2.0,38,0.00,,,0.00,LWC V2.11 B50,2013-02-28 02:32:00,
2013-02-27 20:37:00,53.5,28.5,30.18,NW,325,0.0,1.0,38,0.00,,,0.00,LWC V2.11 B50,2013-02-28 02:37:00,
2013-02-27 20:42:00,53.2,28.9,30.19,NW,325,0.0,1.0,39,0.00,,,0.00,LWC V2.11 B50,2013-02-28 02:42:00,
2013-02-27 20:47:00,52.6,29.0,30.19,NW,325,1.0,4.0,40,0.00,,,0.00,LWC V2.11 B50,2013-02-28 02:47:00,
2013-02-27 20:52:00,52.1,28.5,30.19,NW,323,1.0,4.0,40,0.00,,,0.00,LWC V2.11 B50,2013-02-28 02:52:00,
2013-02-27 20:57:00,51.9,28.3,30.19,NW,319,4.0,4.0,40,0.00,,,0.00,LWC V2.11 B50,2013-02-28 02:57:00,
2013-02-27 21:02:00,51.8,28.3,30.19,NW,319,4.0,4.0,40,0.00,,,0.00,LWC V2.11 B50,2013-02-28 03:02:00,
2013-02-27 21:07:00,51.6,28.1,30.19,NW,319,1.0,4.0,40,0.00,,,0.00,LWC V2.11 B50,2013-02-28 03:07:00,
2013-02-27 21:12:00,51.3,27.8,30.19,NW,315,4.0,4.0,40,0.00,,,0.00,LWC V2.11 B50,2013-02-28 03:12:00,
2013-02-27 21:17:00,51.3,27.8,30.19,NW,316,5.0,5.0,40,0.00,,,0.00,LWC V2.11 B50,2013-02-28 03:17:00,
2013-02-27 21:22:00,51.5,27.4,30.19,NW,311,4.0,7.0,39,0.00,,,0.00,LWC V2.11 B50,2013-02-28 03:22:00,
2013-02-27 21:27:00,51.6,27.5,30.19,NW,315,5.0,5.0,39,0.00,,,0.00,LWC V2.11 B50,2013-02-28 03:27:00,
2013-02-27 21:32:00,51.4,27.3,30.20,NNW,335,5.0,8.0,39,0.00,,,0.00,LWC V2.11 B50,2013-02-28 03:32:00,
2013-02-27 21:37:00,51.2,27.1,30.20,NW,320,4.0,6.0,39,0.00,,,0.00,LWC V2.11 B50,2013-02-28 03:37:00,
2013-02-27 21:42:00,51.0,26.9,30.20,NNW,336,6.0,7.0,39,0.00,,,0.00,LWC V2.11 B50,2013-02-28 03:42:00,
2013-02-27 21:48:00,50.8,27.4,30.20,NW,321,2.0,5.0,40,0.00,,,0.00,LWC V2.11 B50,2013-02-28 03:48:00,
2013-02-27 21:53:00,50.5,27.1,30.20,NW,318,2.0,6.0,40,0.00,,,0.00,LWC V2.11 B50,2013-02-28 03:53:00,
2013-02-27 21:58:00,50.1,27.3,30.20,NW,317,0.0,2.0,41,0.00,,,0.00,LWC V2.11 B50,2013-02-28 03:58:00,
2013-02-27 22:03:00,49.6,27.5,30.20,NW,317,1.0,2.0,42,0.00,,,0.00,LWC V2.11 B50,2013-02-28 04:03:00,
2013-02-27 22:08:00,48.9,27.4,30.20,NW,317,1.0,2.0,43,0.00,,,0.00,LWC V2.11 B50,2013-02-28 04:08:00,
2013-02-27 22:13:00,48.2,27.3,30.21,NW,317,1.0,4.0,44,0.00,,,0.00,LWC V2.11 B50,2013-02-28 04:13:00,
2013-02-27 22:18:00,47.6,27.3,30.21,NW,315,2.0,5.0,45,0.00,,,0.00,LWC V2.11 B50,2013-02-28 04:18:00,
2013-02-27 22:23:00,47.5,27.2,30.21,NW,309,4.0,5.0,45,0.00,,,0.00,LWC V2.11 B50,2013-02-28 04:23:00,
2013-02-27 22:28:00,47.3,27.0,30.21,WNW,302,4.0,5.0,45,0.00,,,0.00,LWC V2.11 B50,2013-02-28 04:28:00,
2013-02-27 22:33:00,47.1,27.4,30.21,WNW,303,2.0,5.0,46,0.00,,,0.00,LWC V2.11 B50,2013-02-28 04:33:00,
2013-02-27 22:38:00,46.9,27.2,30.22,WNW,301,1.0,5.0,46,0.00,,,0.00,LWC V2.11 B50,2013-02-28 04:38:00,
2013-02-27 22:43:00,46.8,26.6,30.22,WNW,298,2.0,4.0,45,0.00,,,0.00,LWC V2.11 B50,2013-02-28 04:43:00,
2013-02-27 22:48:00,46.7,27.0,30.22,WNW,296,2.0,4.0,46,0.00,,,0.00,LWC V2.11 B50,2013-02-28 04:48:00,
2013-02-27 22:53:00,46.7,26.5,30.22,WNW,297,1.0,4.0,45,0.00,,,0.00,LWC V2.11 B50,2013-02-28 04:53:00,
2013-02-27 22:58:00,46.7,26.5,30.22,WNW,295,1.0,4.0,45,0.00,,,0.00,LWC V2.11 B50,2013-02-28 04:58:00,
2013-02-27 23:00:00,46.8,26.0,30.22,WNW,295,2.0,4.0,44,0.00,,,0.00,LWC V2.11 B50,2013-02-28 05:00:00,
2013-02-27 23:01:00,46.8,26.0,30.21,WNW,295,1.0,2.0,44,0.00,,,0.00,LWC V2.11 B50,2013-02-28 05:01:00,
2013-02-27 23:03:00,46.8,26.0,30.22,WNW,295,1.0,2.0,44,0.00,,,0.00,LWC V2.11 B50,2013-02-28 05:03:00,
2013-02-27 23:05:00,46.8,26.0,30.22,NW,313,2.0,5.0,44,0.00,,,0.00,LWC V2.11 B50,2013-02-28 05:05:00,
2013-02-27 23:10:00,47.2,25.3,30.22,NNW,327,4.0,6.0,42,0.00,,,0.00,LWC V2.11 B50,2013-02-28 05:10:00,
2013-02-27 23:15:00,47.6,25.1,30.22,NW,315,1.0,6.0,41,0.00,,,0.00,LWC V2.11 B50,2013-02-28 05:15:00,
2013-02-27 23:20:00,47.7,25.2,30.23,NW,313,2.0,5.0,41,0.00,,,0.00,LWC V2.11 B50,2013-02-28 05:20:00,
2013-02-27 23:25:00,47.6,25.1,30.23,NW,313,2.0,5.0,41,0.00,,,0.00,LWC V2.11 B50,2013-02-28 05:25:00,
2013-02-27 23:30:00,47.5,24.4,30.23,NW,319,5.0,5.0,40,0.00,,,0.00,LWC V2.11 B50,2013-02-28 05:30:00,
2013-02-27 23:35:00,47.5,24.4,30.23,NW,304,2.0,5.0,40,0.00,,,0.00,LWC V2.11 B50,2013-02-28 05:35:00,
2013-02-27 23:40:00,47.5,24.4,30.23,NW,313,2.0,6.0,40,0.00,,,0.00,LWC V2.11 B50,2013-02-28 05:40:00,
2013-02-27 23:45:00,47.5,23.8,30.23,NW,319,2.0,5.0,39,0.00,,,0.00,LWC V2.11 B50,2013-02-28 05:45:00,
2013-02-27 23:50:00,47.5,23.8,30.23,NNW,331,1.0,5.0,39,0.00,,,0.00,LWC V2.11 B50,2013-02-28 05:50:00,
2013-02-27 23:55:00,47.4,23.7,30.23,NW,325,2.0,6.0,39,0.00,,,0.00,LWC V2.11 B50,2013-02-28 05:55:00,